Time;durP1;ratioP1;P1;durP2;ratioP2;P2;SDS_P1;SDS_P2;PMS_P1;PMS_P2;Temp;Humidity;BMP_temperature;BMP_pressure;BME280_temperature;BME280_humidity;BME280_pressure;Samples;Min_cycle;Max_cycle;Signal;HPM_P1;HPM_P2
2022/09/26 00:01:30;;;;;;;3.33;1.83;;;;;;;13.73;38.11;100631.84;5107029;28;20043;-67
2022/09/26 00:04:01;;;;;;;3.50;1.90;;;;;;;13.71;37.91;100629.25;5103425;28;20073;-68
2022/09/26 00:06:30;;;;;;;4.15;1.95;;;;;;;13.71;37.84;100626.50;5102881;28;20073;-68
2022/09/26 00:08:58;;;;;;;4.15;1.98;;;;;;;13.69;37.80;100620.31;5109527;28;20044;-69
2022/09/26 00:11:28;;;;;;;4.45;2.25;;;;;;;13.69;37.94;100617.56;5102462;28;20131;-67
2022/09/26 00:13:59;;;;;;;3.55;1.95;;;;;;;13.70;38.35;100613.78;5106136;28;20510;-67
2022/09/26 00:16:27;;;;;;;3.08;2.20;;;;;;;13.67;38.21;100605.88;5105301;28;20040;-68
2022/09/26 00:18:56;;;;;;;3.67;1.80;;;;;;;13.68;38.32;100602.09;5108739;28;20063;-68
2022/09/26 00:21:26;;;;;;;3.83;1.83;;;;;;;13.68;38.00;100602.09;5101626;28;20090;-68
2022/09/26 00:23:55;;;;;;;3.97;2.03;;;;;;;13.68;38.41;100592.97;5106171;28;20039;-68
2022/09/26 00:26:25;;;;;;;3.47;2.03;;;;;;;13.67;38.44;100591.25;5103483;28;20100;-67
2022/09/26 00:28:55;;;;;;;4.05;2.00;;;;;;;13.65;38.36;100582.28;5090381;28;20121;-68
2022/09/26 00:31:25;;;;;;;3.15;1.98;;;;;;;13.64;38.45;100564.94;5104008;28;20043;-68
2022/09/26 00:33:53;;;;;;;2.75;2.03;;;;;;;13.60;38.56;100558.03;5088445;28;20134;-68
2022/09/26 00:36:24;;;;;;;4.22;2.15;;;;;;;13.58;38.67;100557.34;5102188;28;20465;-67
2022/09/26 00:39:06;;;;;;;4.13;2.00;;;;;;;13.57;38.40;100556.47;5085725;28;20458;-67
2022/09/26 00:41:36;;;;;;;4.55;2.20;;;;;;;13.54;38.81;100554.00;5085882;28;20085;-68
2022/09/26 00:44:24;;;;;;;3.78;2.00;;;;;;;13.52;38.64;100558.81;5088126;28;20040;-68
2022/09/26 00:46:52;;;;;;;3.00;1.90;;;;;;;13.49;38.63;100558.25;5101620;28;20036;-69
2022/09/26 00:49:24;;;;;;;4.05;2.10;;;;;;;13.51;38.69;100550.72;5108750;28;20047;-68
2022/09/26 00:51:57;;;;;;;3.42;1.90;;;;;;;13.47;38.85;100552.06;5103899;28;20487;-67
2022/09/26 00:54:29;;;;;;;5.85;1.92;;;;;;;13.46;39.19;100542.94;5090314;28;20609;-69
2022/09/26 00:57:03;;;;;;;3.83;1.90;;;;;;;13.46;39.69;100544.81;5095925;28;20088;-68
2022/09/26 00:59:34;;;;;;;3.40;2.15;;;;;;;13.47;38.86;100543.81;5104972;28;20039;-67
2022/09/26 01:02:03;;;;;;;3.53;2.28;;;;;;;13.47;38.91;100536.41;5106880;28;20500;-68
2022/09/26 01:04:34;;;;;;;5.13;2.13;;;;;;;13.51;38.86;100537.84;5085182;28;20130;-68
2022/09/26 01:07:08;;;;;;;3.00;2.10;;;;;;;13.52;39.55;100539.56;5086819;28;20039;-68
2022/09/26 01:09:38;;;;;;;3.97;2.15;;;;;;;13.53;38.94;100537.69;5089704;28;20040;-68
2022/09/26 01:12:07;;;;;;;3.35;1.95;;;;;;;13.54;39.20;100520.13;5089985;28;20039;-68
2022/09/26 01:14:39;;;;;;;3.70;2.30;;;;;;;13.56;39.52;100521.75;5095350;28;20040;-67
2022/09/26 01:17:08;;;;;;;4.38;2.65;;;;;;;13.57;39.27;100511.59;5102194;28;20043;-68
2022/09/26 01:19:46;;;;;;;6.07;2.47;;;;;;;13.61;39.29;100522.09;5107070;28;20048;-68
2022/09/26 01:22:40;;;;;;;5.40;2.22;;;;;;;13.61;39.29;100507.53;5106685;28;20040;-67
2022/09/26 01:25:21;;;;;;;5.22;2.28;;;;;;;13.63;39.69;100498.06;5104435;28;20053;-68
2022/09/26 01:28:18;;;;;;;5.15;2.28;;;;;;;13.63;39.31;100502.69;5094516;28;20467;-68
2022/09/26 01:30:52;;;;;;;5.10;2.40;;;;;;;13.66;39.05;100502.38;5089546;28;20157;-68
2022/09/26 01:33:39;;;;;;;4.07;2.10;;;;;;;13.69;39.63;100498.47;5072983;28;20058;-68
2022/09/26 01:36:35;;;;;;;4.15;2.35;;;;;;;13.68;39.51;100492.09;5106331;28;20036;-68
2022/09/26 01:39:20;;;;;;;6.05;2.70;;;;;;;13.70;39.62;100487.28;5088673;28;20500;-68
2022/09/26 01:41:57;;;;;;;4.93;2.80;;;;;;;13.70;39.63;100487.28;5082764;28;20087;-68
2022/09/26 01:44:32;;;;;;;5.38;3.05;;;;;;;13.73;39.20;100486.09;5107549;28;20478;-69
2022/09/26 01:47:10;;;;;;;5.50;3.20;;;;;;;13.73;39.64;100478.69;5082597;28;20489;-68
2022/09/26 01:49:52;;;;;;;6.72;3.33;;;;;;;13.73;39.31;100475.94;5104886;28;20089;-68
2022/09/26 01:52:27;;;;;;;5.40;3.60;;;;;;;13.73;39.51;100473.19;5102678;28;20123;-68
2022/09/26 01:55:03;;;;;;;4.80;3.55;;;;;;;13.74;39.63;100477.69;5090440;28;20063;-67
2022/09/26 01:57:37;;;;;;;5.03;3.47;;;;;;;13.74;38.99;100469.44;5086220;28;20051;-68
2022/09/26 02:00:11;;;;;;;5.90;3.63;;;;;;;13.74;39.25;100466.69;5099275;28;20077;-69
2022/09/26 02:02:46;;;;;;;6.68;3.50;;;;;;;13.75;39.45;100470.28;5080537;28;20048;-68
2022/09/26 02:05:20;;;;;;;5.10;3.28;;;;;;;13.74;39.37;100461.19;5080039;28;20104;-68
2022/09/26 02:07:53;;;;;;;6.47;3.20;;;;;;;13.75;39.32;100457.41;5092723;28;20040;-68
2022/09/26 02:10:27;;;;;;;5.32;3.60;;;;;;;13.75;39.70;100462.03;5106133;28;20122;-69
2022/09/26 02:13:04;;;;;;;4.80;3.20;;;;;;;13.75;39.87;100451.03;5106168;28;20046;-69
2022/09/26 02:15:34;;;;;;;6.43;3.22;;;;;;;13.73;39.12;100442.94;5094814;28;20464;-68
2022/09/26 02:18:12;;;;;;;4.53;3.22;;;;;;;13.74;39.88;100435.56;5087902;28;20043;-69
2022/09/26 02:20:47;;;;;;;5.85;3.08;;;;;;;13.73;39.92;100434.69;5092212;28;20055;-69
2022/09/26 02:23:15;;;;;;;6.82;3.78;;;;;;;13.72;39.26;100432.97;5086305;28;20051;-67
2022/09/26 02:25:43;;;;;;;5.05;3.40;;;;;;;13.73;39.58;100428.34;5106707;28;20100;-68
2022/09/26 02:28:13;;;;;;;4.55;3.22;;;;;;;13.72;39.26;100415.59;5088760;28;20105;-68
2022/09/26 02:30:44;;;;;;;5.28;3.40;;;;;;;13.73;39.37;100412.69;5078361;28;20035;-67
2022/09/26 02:33:15;;;;;;;;;;;;;;;13.46;40.14;100412.88;5103989;28;20161;-69
2022/09/26 02:35:56;;;;;;;5.20;3.25;;;;;;;13.69;39.39;100404.97;5088494;28;19920;-69
2022/09/26 02:38:29;;;;;;;5.00;3.40;;;;;;;13.71;39.76;100400.13;5083197;28;20135;-68
2022/09/26 02:41:28;;;;;;;5.15;3.03;;;;;;;13.72;40.13;100397.22;5095202;28;20074;-68
2022/09/26 02:44:17;;;;;;;5.72;3.63;;;;;;;13.71;40.46;100387.25;5080586;28;20071;-69
2022/09/26 02:47:10;;;;;;;7.32;3.60;;;;;;;13.71;40.22;100383.63;5083516;28;20040;-68
2022/09/26 02:49:49;;;;;;;;;;;;;;;13.41;40.50;100383.13;5103456;28;20697;-68
2022/09/26 02:52:28;;;;;;;3.75;2.63;;;;;;;13.67;40.07;100379.50;5094399;28;20299;-68
2022/09/26 02:55:10;;;;;;;4.43;3.22;;;;;;;13.69;39.93;100366.47;5087681;28;20518;-67
2022/09/26 02:57:48;;;;;;;5.27;2.97;;;;;;;13.68;40.37;100362.84;5100046;28;20048;-67
2022/09/26 03:00:20;;;;;;;5.10;3.55;;;;;;;13.68;40.23;100361.97;5091985;28;20360;-68
2022/09/26 03:02:55;;;;;;;4.85;3.38;;;;;;;13.69;40.36;100355.47;5087744;28;20054;-67
2022/09/26 03:05:28;;;;;;;5.03;3.50;;;;;;;13.69;40.18;100352.72;5085003;28;20039;-66
2022/09/26 03:08:00;;;;;;;5.40;3.20;;;;;;;13.68;40.23;100346.34;5087570;28;20558;-68
2022/09/26 03:10:30;;;;;;;4.78;3.10;;;;;;;13.66;39.99;100334.66;5080149;28;20400;-67
2022/09/26 03:13:05;;;;;;;5.10;3.10;;;;;;;13.69;40.13;100334.31;5098351;28;20044;-66
2022/09/26 03:15:35;;;;;;;6.85;3.25;;;;;;;13.67;40.36;100333.63;5086891;28;20043;-68
2022/09/26 03:18:08;;;;;;;5.35;3.17;;;;;;;13.70;40.67;100332.41;5098866;28;20127;-66
2022/09/26 03:20:39;;;;;;;4.05;3.10;;;;;;;13.69;40.00;100322.47;5081118;28;20524;-66
2022/09/26 03:23:07;;;;;;;4.22;2.83;;;;;;;13.67;40.06;100321.75;5100454;28;20404;-67
2022/09/26 03:25:35;;;;;;;4.63;3.35;;;;;;;13.67;40.06;100310.75;5092926;28;20040;-68
2022/09/26 03:28:05;;;;;;;5.55;2.95;;;;;;;13.67;39.94;100308.00;5090235;28;20126;-68
2022/09/26 03:30:33;;;;;;;5.03;3.15;;;;;;;13.66;40.03;100301.66;5088415;28;20043;-67
2022/09/26 03:33:20;;;;;;;4.82;3.30;;;;;;;13.64;40.52;100298.19;5092774;28;20059;-67
2022/09/26 03:35:50;;;;;;;4.90;3.03;;;;;;;13.66;40.58;100301.66;5102302;28;20412;-65
2022/09/26 03:38:20;;;;;;;4.63;2.97;;;;;;;13.63;40.64;100289.09;5093531;28;20127;-67
2022/09/26 03:40:53;;;;;;;5.07;2.95;;;;;;;13.65;40.66;100293.56;5079396;28;20093;-68
2022/09/26 03:43:42;;;;;;;5.20;2.90;;;;;;;13.62;40.18;100290.09;5100871;28;20344;-68
2022/09/26 03:46:12;;;;;;;5.47;3.03;;;;;;;13.65;40.04;100285.31;5097831;28;20042;-68
2022/09/26 03:48:40;;;;;;;4.75;3.10;;;;;;;13.62;40.68;100284.59;5083134;28;20040;-67
2022/09/26 03:51:11;;;;;;;4.93;2.83;;;;;;;13.65;40.91;100280.66;5103178;28;20036;-67
2022/09/26 03:53:41;;;;;;;4.53;3.15;;;;;;;13.63;40.88;100283.59;5086991;28;20046;-67
2022/09/26 03:56:15;;;;;;;4.35;2.88;;;;;;;13.61;40.62;100276.56;5073040;28;20044;-68
2022/09/26 03:58:43;;;;;;;4.55;3.00;;;;;;;13.62;40.83;100275.50;5098649;28;20062;-67
2022/09/26 04:01:13;;;;;;;4.70;3.10;;;;;;;13.63;40.35;100263.47;5099071;28;20127;-67
2022/09/26 04:03:43;;;;;;;4.30;3.10;;;;;;;13.62;40.70;100261.75;5083499;28;20096;-67
2022/09/26 04:06:19;;;;;;;6.38;4.00;;;;;;;13.62;40.71;100251.63;5094853;28;20167;-67
2022/09/26 04:08:51;;;;;;;5.95;3.70;;;;;;;13.59;41.00;100251.97;5089204;28;20047;-67
2022/09/26 04:11:23;;;;;;;4.93;3.03;;;;;;;13.60;40.60;100237.19;5096245;28;20109;-68
2022/09/26 04:13:51;;;;;;;5.70;3.40;;;;;;;13.58;40.66;100241.13;5106417;28;20040;-66
2022/09/26 04:16:24;;;;;;;5.05;3.53;;;;;;;13.57;41.20;100233.91;5102238;28;20047;-68
2022/09/26 04:18:58;;;;;;;3.97;3.00;;;;;;;13.58;41.09;100241.13;5086883;28;20039;-67
2022/09/26 04:21:28;;;;;;;4.85;3.30;;;;;;;13.59;41.19;100240.13;5099578;28;20044;-67
2022/09/26 04:23:58;;;;;;;4.65;2.97;;;;;;;13.56;40.80;100233.06;5094612;28;20035;-66
2022/09/26 04:26:27;;;;;;;5.70;3.10;;;;;;;13.56;40.87;100221.16;5104200;28;20050;-69
2022/09/26 04:28:57;;;;;;;4.40;2.78;;;;;;;13.58;40.75;100220.00;5091066;28;20412;-66
2022/09/26 04:31:45;;;;;;;6.28;3.20;;;;;;;13.54;41.23;100213.06;5099390;28;20050;-69
2022/09/26 04:34:17;;;;;;;4.95;2.78;;;;;;;13.55;40.85;100208.44;5099731;28;20032;-68
2022/09/26 04:36:50;;;;;;;4.65;2.92;;;;;;;13.56;40.73;100201.91;5090318;28;20052;-70
2022/09/26 04:39:17;;;;;;;5.70;2.90;;;;;;;13.54;40.90;100198.47;5081882;28;20089;-68
2022/09/26 04:41:46;;;;;;;4.13;2.80;;;;;;;13.53;40.95;100197.59;5108734;28;20063;-69
2022/09/26 04:44:14;;;;;;;4.47;2.90;;;;;;;13.53;41.25;100196.78;5101324;28;20061;-68
2022/09/26 04:46:43;;;;;;;6.22;3.17;;;;;;;13.52;40.94;100193.16;5109528;28;20052;-69
2022/09/26 04:49:11;;;;;;;5.63;3.20;;;;;;;13.52;40.79;100190.41;5079683;28;20043;-67
2022/09/26 04:51:39;;;;;;;6.18;2.85;;;;;;;13.51;41.27;100188.69;5101719;28;20422;-68
2022/09/26 04:54:08;;;;;;;4.63;3.17;;;;;;;13.52;41.11;100179.41;5091488;28;20028;-70
2022/09/26 04:56:39;;;;;;;4.72;2.60;;;;;;;13.51;41.37;100174.09;5092736;28;20066;-69
2022/09/26 04:59:08;;;;;;;4.35;2.95;;;;;;;13.50;41.10;100164.13;5077744;28;20040;-70
2022/09/26 05:01:45;;;;;;;5.70;2.90;;;;;;;13.48;41.43;100156.03;5088703;28;20047;-69
2022/09/26 05:04:18;;;;;;;4.53;2.65;;;;;;;13.47;40.93;100159.81;5092553;28;20039;-68
2022/09/26 05:06:50;;;;;;;4.00;2.85;;;;;;;13.45;41.18;100155.50;5100562;28;20500;-68
2022/09/26 05:09:27;;;;;;;5.57;2.65;;;;;;;13.47;40.99;100147.94;5089689;28;20127;-68
2022/09/26 05:12:05;;;;;;;6.00;2.65;;;;;;;13.45;41.02;100152.75;5097551;28;20043;-69
2022/09/26 05:14:35;;;;;;;5.20;3.00;;;;;;;13.44;40.92;100148.31;5088830;28;20096;-69
2022/09/26 05:17:04;;;;;;;4.53;2.70;;;;;;;13.43;41.52;100141.94;5082325;28;20047;-70
2022/09/26 05:19:33;;;;;;;4.00;2.55;;;;;;;13.42;41.03;100142.97;5083194;28;20054;-68
2022/09/26 05:22:21;;;;;;;3.97;2.80;;;;;;;13.41;41.29;100143.16;5101187;28;20036;-69
2022/09/26 05:27:37;;;;;;;4.68;2.72;;;;;;;13.38;41.43;100136.09;5074389;28;20052;-69
2022/09/26 05:30:07;;;;;;;4.88;2.50;;;;;;;13.39;41.08;100135.06;5089560;28;20043;-69
2022/09/26 05:32:34;;;;;;;4.00;2.78;;;;;;;13.38;41.45;100121.47;5103605;28;20485;-70
2022/09/26 05:35:04;;;;;;;3.65;2.60;;;;;;;13.38;41.44;100122.34;5080965;28;20105;-69
2022/09/26 05:37:36;;;;;;;5.25;2.72;;;;;;;13.36;41.38;100118.06;5103052;28;20105;-69
2022/09/26 05:42:59;;;;;;;4.85;2.75;;;;;;;13.33;40.95;100116.50;5093069;28;20043;-69
2022/09/26 05:45:27;;;;;;;4.30;2.80;;;;;;;13.34;41.03;100112.75;5104753;28;20039;-69
2022/09/26 05:47:54;;;;;;;3.83;2.33;;;;;;;13.33;41.27;100113.75;5079010;28;20046;-69
2022/09/26 05:50:23;;;;;;;5.97;3.10;;;;;;;13.32;41.33;100113.94;5086886;28;20527;-68
2022/09/26 05:52:51;;;;;;;4.22;2.40;;;;;;;13.32;41.31;100109.28;5095427;28;20069;-68
2022/09/26 05:55:25;;;;;;;4.05;2.47;;;;;;;13.32;40.81;100106.53;5093130;28;20094;-69
2022/09/26 05:58:02;;;;;;;4.93;2.53;;;;;;;13.31;41.03;100102.06;5102760;28;20043;-69
2022/09/26 06:00:50;;;;;;;4.45;2.50;;;;;;;13.30;40.81;100107.72;5100330;28;20040;-67
2022/09/26 06:03:18;;;;;;;4.53;2.40;;;;;;;13.31;40.80;100107.56;5099657;28;20100;-67
2022/09/26 06:06:09;;;;;;;5.15;2.65;;;;;;;13.32;40.87;100100.19;5079660;28;20050;-68
2022/09/26 06:08:38;;;;;;;4.10;2.58;;;;;;;13.32;41.29;100092.81;5086221;28;20052;-68
2022/09/26 06:11:31;;;;;;;7.20;2.50;;;;;;;13.31;41.24;100088.34;5096658;28;20308;-69
2022/09/26 06:14:00;;;;;;;4.07;2.22;;;;;;;13.31;41.15;100088.34;5080067;28;20620;-67
2022/09/26 06:16:28;;;;;;;3.35;2.15;;;;;;;13.32;40.91;100072.69;5103504;28;20138;-70
2022/09/26 06:18:57;;;;;;;3.17;2.22;;;;;;;13.32;41.26;100076.31;5104331;28;20047;-69
2022/09/26 06:21:25;;;;;;;4.00;2.10;;;;;;;13.31;40.79;100063.59;5091332;28;20044;-68
2022/09/26 06:24:05;;;;;;;3.97;2.10;;;;;;;13.32;40.91;100065.31;5087727;28;20078;-69
2022/09/26 06:26:34;;;;;;;5.28;2.28;;;;;;;13.33;40.69;100061.56;5101246;28;20040;-69
2022/09/26 06:29:03;;;;;;;4.05;2.00;;;;;;;13.33;41.14;100063.44;5089608;28;20043;-68
2022/09/26 06:31:34;;;;;;;3.20;1.83;;;;;;;13.31;40.73;100058.09;5105228;28;20430;-67
2022/09/26 06:34:12;;;;;;;3.05;1.80;;;;;;;13.33;40.93;100050.56;5100555;28;20393;-68
2022/09/26 06:37:06;;;;;;;4.38;2.00;;;;;;;13.32;40.88;100045.22;5085204;28;20036;-69
2022/09/26 06:39:35;;;;;;;3.70;2.00;;;;;;;13.34;40.52;100046.78;5077071;28;20056;-67
2022/09/26 06:42:07;;;;;;;5.05;2.20;;;;;;;13.35;41.01;100045.75;5080622;28;20092;-69
2022/09/26 06:44:48;;;;;;;3.60;1.90;;;;;;;13.31;41.02;100040.75;5105334;28;20043;-68
2022/09/26 06:47:25;;;;;;;3.08;1.83;;;;;;;13.34;41.00;100023.94;5107201;28;20441;-68
2022/09/26 06:50:13;;;;;;;2.97;1.77;;;;;;;13.32;41.07;100029.59;5093971;28;20051;-69
2022/09/26 06:52:46;;;;;;;;;;;;;;;13.07;41.28;100028.72;5088512;28;20082;-67
2022/09/26 06:55:14;;;;;;;3.67;1.65;;;;;;;13.31;40.92;100018.78;5105401;28;20335;-67
2022/09/26 06:57:45;;;;;;;4.18;1.70;;;;;;;13.35;40.39;100018.28;5087768;28;20039;-69
2022/09/26 07:00:15;;;;;;;4.20;1.90;;;;;;;13.36;40.48;100014.50;5071131;28;21889;-68
2022/09/26 07:03:04;;;;;;;3.40;2.10;;;;;;;13.36;40.66;100016.38;5085923;28;20087;-69
2022/09/26 07:05:44;;;;;;;3.30;1.80;;;;;;;13.37;40.96;100007.94;5078554;28;20093;-69
2022/09/26 07:08:12;;;;;;;2.58;1.70;;;;;;;13.39;40.58;100005.03;5089163;28;20565;-69
2022/09/26 07:10:40;;;;;;;3.00;1.70;;;;;;;13.39;40.45;100008.63;5087324;28;20107;-67
2022/09/26 07:13:15;;;;;;;2.90;1.55;;;;;;;13.40;40.58;100001.25;5088687;28;20059;-69
2022/09/26 07:15:45;;;;;;;4.15;1.70;;;;;;;13.41;40.98;100000.22;5083048;28;20044;-70
2022/09/26 07:18:35;;;;;;;3.10;1.70;;;;;;;13.41;40.76;100002.97;5081732;28;20044;-68
2022/09/26 07:21:30;;;;;;;3.70;1.80;;;;;;;13.41;40.67;99998.34;5088099;28;20043;-67
2022/09/26 07:24:12;;;;;;;4.00;1.67;;;;;;;13.43;40.53;99992.66;5107030;28;20048;-70
2022/09/26 07:26:41;;;;;;;2.33;1.58;;;;;;;13.45;40.57;99994.19;5089255;28;20082;-69
2022/09/26 07:29:11;;;;;;;3.80;1.60;;;;;;;13.47;40.76;99989.38;5088508;28;20040;-69
2022/09/26 07:31:39;;;;;;;3.53;1.58;;;;;;;13.46;41.23;99984.91;5099518;28;20131;-68
2022/09/26 07:34:07;;;;;;;4.35;1.77;;;;;;;13.49;40.85;99980.97;5105104;28;20074;-55
2022/09/26 07:36:39;;;;;;;3.45;1.65;;;;;;;13.50;41.02;99980.78;5101331;28;20415;-66
2022/09/26 07:39:08;;;;;;;4.25;1.55;;;;;;;13.51;41.32;99976.16;5079393;28;20224;-70
2022/09/26 07:41:37;;;;;;;3.63;1.60;;;;;;;13.52;41.25;99981.50;5088346;28;20043;-69
2022/09/26 07:44:06;;;;;;;3.00;1.52;;;;;;;13.54;41.17;99984.91;5085425;28;20056;-68
2022/09/26 07:52:57;;;;;;;2.53;1.50;;;;;;;13.54;41.34;99962.03;5090710;28;20040;-67
2022/09/26 07:56:04;;;;;;;2.75;1.40;;;;;;;13.56;41.64;99963.63;5075983;28;20046;-68
2022/09/26 07:58:56;;;;;;;3.00;1.33;;;;;;;13.56;41.15;99966.38;5102637;28;20509;-68
2022/09/26 08:01:43;;;;;;;4.35;1.40;;;;;;;13.58;41.09;99960.72;5106798;28;20705;-69
2022/09/26 08:04:32;;;;;;;3.00;1.60;;;;;;;13.59;41.49;99957.78;5108998;28;20169;-69
2022/09/26 08:07:01;;;;;;;3.13;1.30;;;;;;;13.59;41.17;99954.19;5088125;28;20059;-67
2022/09/26 08:09:30;;;;;;;3.58;1.33;;;;;;;13.58;41.20;99950.56;5092868;28;20040;-69
2022/09/26 08:12:24;;;;;;;2.72;1.30;;;;;;;13.57;41.57;99942.50;5086638;28;20492;-68
2022/09/26 08:15:11;;;;;;;3.53;1.50;;;;;;;13.57;41.10;99945.25;5109119;28;20048;-70
2022/09/26 08:17:44;;;;;;;2.65;1.25;;;;;;;13.56;41.24;99949.88;5110402;28;20763;-70
2022/09/26 08:20:13;;;;;;;3.22;1.35;;;;;;;13.57;41.54;99950.75;5105448;28;20141;-70
2022/09/26 08:22:42;;;;;;;3.65;1.60;;;;;;;13.56;41.39;99946.25;5094954;28;20036;-68
2022/09/26 08:25:12;;;;;;;3.60;1.60;;;;;;;13.55;41.65;99952.75;5092296;28;20082;-69
2022/09/26 08:27:58;;;;;;;2.25;1.10;;;;;;;13.53;41.62;99946.63;5099143;28;20052;-69
2022/09/26 08:30:30;;;;;;;2.70;1.60;;;;;;;13.52;41.88;99945.75;5097016;28;20134;-69
2022/09/26 08:33:00;;;;;;;1.92;1.15;;;;;;;13.51;41.90;99944.03;5091534;28;20067;-68
2022/09/26 08:35:37;;;;;;;4.47;1.75;;;;;;;13.52;42.28;99936.66;5090222;28;20039;-69
2022/09/26 08:38:37;;;;;;;3.13;1.48;;;;;;;13.47;41.83;99942.66;5064589;28;20059;-70
2022/09/26 08:41:55;;;;;;;2.63;1.10;;;;;;;13.49;42.71;99939.72;5110147;28;20048;-69
2022/09/26 08:44:47;;;;;;;2.50;1.10;;;;;;;13.49;42.26;99937.84;5099972;28;20047;-69
2022/09/26 08:47:47;;;;;;;3.05;1.38;;;;;;;13.46;42.24;99929.94;5095260;28;20044;-69
2022/09/26 08:50:47;;;;;;;1.90;0.93;;;;;;;13.46;42.17;99929.06;5091354;28;20121;-70
2022/09/26 08:53:18;;;;;;;3.25;1.10;;;;;;;13.43;42.20;99929.44;5089087;28;20044;-69
2022/09/26 08:55:53;;;;;;;2.63;1.20;;;;;;;13.43;42.10;99923.94;5088054;28;20039;-70
2022/09/26 08:58:26;;;;;;;2.53;1.02;;;;;;;13.43;42.03;99930.31;5109301;28;20143;-70
2022/09/26 09:01:02;;;;;;;2.10;1.10;;;;;;;13.42;42.16;99928.59;5104105;28;20085;-69
2022/09/26 09:03:45;;;;;;;3.38;1.02;;;;;;;13.40;42.60;99919.66;5090609;28;20047;-69
2022/09/26 09:06:15;;;;;;;2.17;1.00;;;;;;;13.39;42.01;99928.94;5076509;28;20040;-70
2022/09/26 09:08:48;;;;;;;2.08;1.10;;;;;;;13.39;42.26;99911.56;5102499;28;20048;-70
2022/09/26 09:11:50;;;;;;;2.08;1.08;;;;;;;13.38;42.93;99913.47;5102631;28;20063;-70
2022/09/26 09:14:40;;;;;;;2.83;1.30;;;;;;;13.38;42.73;99912.59;5101792;28;20052;-68
2022/09/26 09:17:39;;;;;;;2.78;1.08;;;;;;;13.35;42.99;99908.34;5093486;28;20048;-69
2022/09/26 09:20:21;;;;;;;3.25;1.10;;;;;;;13.34;42.89;99897.53;5084769;28;20047;-69
2022/09/26 09:23:33;;;;;;;5.63;1.60;;;;;;;13.35;43.11;99896.50;5103282;28;20504;-69
2022/09/26 09:26:09;;;;;;;2.92;1.20;;;;;;;13.33;42.89;99891.16;5105319;28;20040;-69
2022/09/26 09:29:12;;;;;;;3.63;1.40;;;;;;;13.33;42.81;99895.81;5108892;28;20426;-70
2022/09/26 09:32:03;;;;;;;3.95;1.20;;;;;;;13.28;42.70;99887.25;5087934;28;20089;-69
2022/09/26 09:34:51;;;;;;;1.90;1.00;;;;;;;13.29;42.31;99887.03;5107822;28;20058;-68
2022/09/26 09:37:51;;;;;;;2.25;0.90;;;;;;;13.28;42.78;99879.00;5106460;28;20047;-69
2022/09/26 09:40:37;;;;;;;3.03;1.17;;;;;;;13.28;43.25;99879.84;5097246;28;20040;-70
2022/09/26 09:43:13;;;;;;;2.45;1.30;;;;;;;13.27;43.30;99877.28;5086888;28;20059;-68
2022/09/26 09:45:46;;;;;;;3.10;1.02;;;;;;;13.27;43.30;99880.88;5098978;28;20065;-69
2022/09/26 09:48:15;;;;;;;4.10;1.20;;;;;;;13.24;43.20;99873.84;5108076;28;20335;-69
2022/09/26 09:50:53;;;;;;;2.60;1.17;;;;;;;13.26;43.46;99870.91;5088343;28;20036;-69
2022/09/26 09:53:38;;;;;;;1.85;1.45;;;;;;;13.23;44.07;99869.38;5089896;28;20036;-68
2022/09/26 09:56:17;;;;;;;3.70;1.20;;;;;;;13.22;43.88;99851.16;5094001;28;20039;-69
2022/09/26 09:59:02;;;;;;;2.30;1.13;;;;;;;13.23;43.89;99858.38;5090223;28;20079;-67
2022/09/26 10:01:37;;;;;;;2.40;1.20;;;;;;;13.22;43.64;99839.31;5095043;28;20453;-68
2022/09/26 10:04:19;;;;;;;3.10;1.30;;;;;;;13.21;43.52;99843.09;5088213;28;20044;-68
2022/09/26 10:06:49;;;;;;;1.77;1.08;;;;;;;13.21;43.92;99834.84;5106019;28;20046;-68
2022/09/26 10:09:26;;;;;;;5.28;1.70;;;;;;;13.23;43.61;99832.78;5087574;28;20432;-67
2022/09/26 10:12:29;;;;;;;;;;;;;;;12.92;44.23;99818.13;5096310;28;20411;-69
2022/09/26 10:15:19;;;;;;;3.72;1.15;;;;;;;13.15;43.46;99810.84;5105679;28;19926;-68
2022/09/26 10:18:10;;;;;;;2.25;1.10;;;;;;;13.18;43.42;99807.75;5103360;28;20390;-68
2022/09/26 10:21:15;;;;;;;4.60;1.73;;;;;;;13.17;43.48;99801.41;5090025;28;20044;-69
2022/09/26 10:23:46;;;;;;;3.05;1.50;;;;;;;13.16;43.70;99801.56;5094040;28;20096;-68
2022/09/26 10:26:33;;;;;;;2.80;1.25;;;;;;;13.18;43.79;99794.00;5099436;28;20046;-69
2022/09/26 10:29:07;;;;;;;3.25;1.40;;;;;;;13.19;44.39;99796.59;5100356;28;20043;-70
2022/09/26 10:31:37;;;;;;;;;;;;;;;12.92;44.57;99782.41;5081844;28;20051;-69
2022/09/26 10:34:26;;;;;;;2.33;1.15;;;;;;;13.15;44.88;99784.22;5087231;28;19945;-70
2022/09/26 10:36:55;;;;;;;4.22;1.27;;;;;;;13.18;43.74;99764.66;5085989;28;20089;-70
2022/09/26 10:42:17;;;;;;;3.08;1.30;;;;;;;13.18;43.80;99752.81;5097966;28;19920;-68
2022/09/26 10:44:48;;;;;;;2.63;1.27;;;;;;;13.23;44.36;99755.84;5086294;28;20134;-68
2022/09/26 10:47:24;;;;;;;2.35;1.23;;;;;;;13.24;44.42;99755.69;5107644;28;20036;-68
2022/09/26 10:50:31;;;;;;;6.30;1.65;;;;;;;13.22;44.60;99745.91;5082958;28;20043;-70
2022/09/26 10:53:40;;;;;;;1.95;1.33;;;;;;;13.24;44.33;99741.09;5087627;28;20040;-71
2022/09/26 10:56:12;;;;;;;1.88;1.25;;;;;;;13.28;44.35;99742.47;5084505;28;20668;-70
2022/09/26 10:58:43;;;;;;;3.35;1.30;;;;;;;13.28;44.55;99739.72;5081611;28;20346;-70
2022/09/26 11:01:22;;;;;;;3.33;1.20;;;;;;;13.34;45.21;99738.13;5083787;28;20408;-71
2022/09/26 11:03:50;;;;;;;2.25;1.33;;;;;;;13.34;44.71;99736.25;5091099;28;20115;-66
2022/09/26 11:06:27;;;;;;;2.22;1.30;;;;;;;13.39;44.68;99736.53;5099385;28;20067;-70
2022/09/26 11:09:04;;;;;;;2.53;1.50;;;;;;;13.41;44.76;99728.97;5099008;28;20048;-68
2022/09/26 11:12:25;;;;;;;3.15;1.40;;;;;;;13.44;45.31;99717.66;5019364;28;20494;-69
2022/09/26 11:14:57;;;;;;;2.70;1.30;;;;;;;13.46;44.77;99715.53;5034372;28;20065;-70
2022/09/26 11:17:43;;;;;;;2.15;1.20;;;;;;;13.51;45.25;99702.13;5056379;28;20127;-71
2022/09/26 11:20:20;;;;;;;2.22;1.30;;;;;;;13.56;44.83;99704.31;5094990;28;20373;-67
2022/09/26 11:22:57;;;;;;;2.67;1.40;;;;;;;13.60;45.07;99700.22;5110611;28;20059;-68
2022/09/26 11:25:30;;;;;;;3.25;1.50;;;;;;;13.63;44.43;99692.44;5100667;28;20086;-70
2022/09/26 11:28:04;;;;;;;2.72;1.40;;;;;;;13.65;44.64;99695.03;5106419;28;20492;-70
2022/09/26 11:30:57;;;;;;;2.38;1.25;;;;;;;13.70;44.42;99692.56;5104159;28;20035;-70
2022/09/26 11:33:29;;;;;;;1.60;1.00;;;;;;;13.74;44.57;99679.31;5094544;28;20096;-71
2022/09/26 11:36:38;;;;;;;2.70;1.50;;;;;;;13.77;44.70;99684.47;5100425;28;20499;-68
2022/09/26 11:39:17;;;;;;;1.77;1.20;;;;;;;13.79;44.31;99671.38;5109452;28;20050;-68
2022/09/26 11:42:02;;;;;;;3.58;1.98;;;;;;;13.83;44.37;99679.06;5106076;28;20074;-66
2022/09/26 11:44:43;;;;;;;2.60;1.70;;;;;;;13.85;44.03;99662.41;5091165;28;20039;-70
2022/09/26 11:47:59;;;;;;;2.80;1.50;;;;;;;13.85;44.22;99652.25;5101518;28;20044;-70
2022/09/26 11:50:56;;;;;;;2.65;1.33;;;;;;;13.87;43.67;99641.03;5086020;28;20059;-69
2022/09/26 11:53:50;;;;;;;2.75;1.15;;;;;;;13.89;43.64;99645.34;5107092;28;20047;-69
2022/09/26 11:56:50;;;;;;;2.00;1.08;;;;;;;13.90;43.63;99643.44;5109537;28;20047;-68
2022/09/26 11:59:35;;;;;;;3.58;1.02;;;;;;;13.94;43.61;99640.13;5100937;28;20109;-70
2022/09/26 12:02:22;;;;;;;2.63;0.93;;;;;;;13.98;43.63;99629.59;5100409;28;20039;-71
2022/09/26 12:05:01;;;;;;;1.55;1.02;;;;;;;13.99;43.53;99625.81;5100302;28;20047;-70
2022/09/26 12:07:42;;;;;;;2.00;1.00;;;;;;;14.04;43.23;99630.75;5100574;28;20046;-70
2022/09/26 12:10:24;;;;;;;1.75;1.08;;;;;;;14.06;43.28;99632.28;5103895;28;20043;-70
2022/09/26 12:13:09;;;;;;;1.60;0.90;;;;;;;14.08;43.28;99627.47;5089109;28;20192;-71
2022/09/26 12:15:47;;;;;;;1.65;0.85;;;;;;;14.10;42.74;99619.03;5099916;28;20121;-71
2022/09/26 12:18:23;;;;;;;1.88;1.00;;;;;;;14.11;42.63;99616.06;5106801;28;20035;-71
2022/09/26 12:21:04;;;;;;;1.48;0.88;;;;;;;14.16;42.98;99610.00;5101331;28;20048;-69
2022/09/26 12:23:40;;;;;;;1.33;0.90;;;;;;;14.16;42.46;99615.50;5109648;28;20039;-70
2022/09/26 12:26:18;;;;;;;1.05;0.90;;;;;;;14.17;42.75;99598.81;5095876;28;20458;-70
2022/09/26 12:29:11;;;;;;;2.30;1.00;;;;;;;14.18;42.76;99595.03;5105982;28;20053;-69
2022/09/26 12:31:49;;;;;;;;;;;;;;;13.90;42.98;99594.78;5108208;28;20445;-68